Nordkinn — OZ2080 — position and weather

sailwx.info

Track history (hours):
 
Tides and Currents Weather Stations Pressure Air Temp Water Temp Dewpoint Dewpoint Depression Visibility Wind Speed Wind Dir Waves Ship Positions

Nordkinn

Last reported at 2017-Oct-18 03:30 UTC. Time now 2017-Oct-18 03:39 UTC.
Position N 66°30' E 012°06'.

Length 80 m; draft 6.2 m.

Type: Cargo ship. MMSI: 231711000.

Date/timePositionNaut miles runAvg speedWind from/ knotsBaromVisibWave heightAir tempDewpointWater temp
2017-Oct-18 03:30N 66°30' E 012°06'2 3.5
2017-Oct-18 03:00N 66°29' E 012°09'713.9
2017-Oct-18 02:30N 66°34' E 012°20'714.3
2017-Oct-18 02:00N 66°41' E 012°22'4414.4
2017-Oct-17 22:59N 67°24' E 012°38'714.6
2017-Oct-17 22:30N 67°31' E 012°41'714.2
2017-Oct-17 22:00N 67°38' E 012°43'1 2.7
2017-Oct-17 21:29N 67°39' E 012°42'0 0.0
2017-Oct-17 20:59N 67°39' E 012°42'0 0.0
2017-Oct-17 20:29N 67°39' E 012°42'0 0.0
2017-Oct-17 19:59N 67°39' E 012°42'0 0.0
2017-Oct-17 19:29N 67°39' E 012°42'0 0.0
2017-Oct-17 18:59N 67°39' E 012°42'0 0.0
2017-Oct-17 18:29N 67°39' E 012°42'0 0.0
2017-Oct-17 17:59N 67°39' E 012°42'0 0.0
2017-Oct-17 17:29N 67°39' E 012°42'0 0.0
2017-Oct-17 16:59N 67°39' E 012°42'0 0.0
2017-Oct-17 16:29N 67°39' E 012°42'0 0.7
2017-Oct-17 16:00N 67°39' E 012°43'510.6
2017-Oct-17 15:30N 67°42' E 012°54'714.0
2017-Oct-17 15:00N 67°47' E 013°07'713.7
2017-Oct-17 14:30N 67°52' E 013°20'713.9
2017-Oct-17 14:00N 67°57' E 013°33'714.1
2017-Oct-17 13:30N 68°02' E 013°46'713.7
2017-Oct-17 13:00N 68°07' E 013°59'713.5
2017-Oct-17 12:30N 68°12' E 014°10'612.3
2017-Oct-17 12:00N 68°18' E 014°17'713.3
2017-Oct-17 11:30N 68°24' E 014°18'713.9
2017-Oct-17 11:00N 68°31' E 014°20'714.0
2017-Oct-17 10:30N 68°38' E 014°23'713.6
2017-Oct-17 10:00N 68°45' E 014°21'713.2
2017-Oct-17 09:30N 68°50' E 014°32'612.8
2017-Oct-17 09:00N 68°52' E 014°49'611.7
2017-Oct-17 08:30N 68°55' E 015°03'1 1.5
2017-Oct-17 08:00N 68°55' E 015°05'0 0.0
2017-Oct-17 07:30N 68°55' E 015°05'0 0.0
2017-Oct-17 07:00N 68°55' E 015°05'0 0.0
2017-Oct-17 06:30N 68°55' E 015°05'1 2.2
2017-Oct-17 06:00N 68°55' E 015°02'611.8
2017-Oct-17 05:30N 69°01' E 015°00'612.6
2017-Oct-17 05:00N 69°01' E 015°18'713.3
2017-Oct-17 04:30N 68°55' E 015°24'4 8.0
2017-Oct-17 04:00N 68°55' E 015°35'510.9
2017-Oct-17 03:30N 68°59' E 015°46'714.7
2017-Oct-17 03:00N 68°57' E 016°06'714.6
2017-Oct-17 02:30N 68°54' E 016°23'815.0
2017-Oct-17 02:00N 68°51' E 016°43'815.0
2017-Oct-17 01:30N 68°56' E 017°00'714.8
2017-Oct-17 01:00N 69°01' E 017°15'714.2
2017-Oct-17 00:30N 69°06' E 017°28'815.0
2017-Oct-17 00:00N 69°09' E 017°48'611.0
2017-Oct-16 23:30N 69°13' E 017°58'714.1
2017-Oct-16 23:00N 69°20' E 018°02'714.2
2017-Oct-16 22:30N 69°27' E 018°07'713.8
2017-Oct-16 22:00N 69°31' E 018°23'714.6
2017-Oct-16 21:30N 69°33' E 018°42'712.8
2017-Oct-16 21:00N 69°38' E 018°57'0 0.0
2017-Oct-16 20:28N 69°38' E 018°57'0 0.0
2017-Oct-16 19:58N 69°38' E 018°57'0 0.0
2017-Oct-16 19:28N 69°38' E 018°57'1 1.6
2017-Oct-16 19:00N 69°38' E 018°57'4 7.9
2017-Oct-16 18:29N 69°42' E 019°01'0 0.0
2017-Oct-16 18:00N 69°42' E 019°01'510.1
2017-Oct-16 17:31N 69°46' E 019°10'714.3
2017-Oct-16 17:00N 69°49' E 019°29'714.6
2017-Oct-16 16:30N 69°52' E 019°49'714.3
2017-Oct-16 16:00N 69°57' E 020°05'714.1
2017-Oct-16 15:30N 69°60' E 020°23'714.4
2017-Oct-16 15:00N 70°02' E 020°43'713.5
2017-Oct-16 14:30N 70°06' E 020°58'1413.8
2017-Oct-16 13:30N 70°17' E 021°22'714.2
2017-Oct-16 13:00N 70°23' E 021°37'612.4
2017-Oct-16 12:30N 70°22' E 021°56'714.6
2017-Oct-16 12:00N 70°19' E 022°15'714.6
2017-Oct-16 11:30N 70°15' E 022°34'1 1.8
2017-Oct-16 11:00N 70°16' E 022°37'0 0.0
2017-Oct-16 10:30N 70°16' E 022°37'0 0.0
2017-Oct-16 10:00N 70°16' E 022°37'0 0.0
2017-Oct-16 09:30N 70°16' E 022°37'0 0.0
2017-Oct-16 09:00N 70°16' E 022°37'0 0.0
2017-Oct-16 08:30N 70°16' E 022°37'0 0.0
2017-Oct-16 08:00N 70°16' E 022°37'0 0.0
2017-Oct-16 07:30N 70°16' E 022°37'0 0.0
2017-Oct-16 07:00N 70°16' E 022°37'0 0.0
2017-Oct-16 06:30N 70°16' E 022°37'0 0.4
2017-Oct-16 06:00N 70°16' E 022°37'3 6.8
2017-Oct-16 05:30N 70°14' E 022°46'611.4
2017-Oct-16 05:00N 70°15' E 023°03'611.6
2017-Oct-16 04:30N 70°17' E 023°18'611.7
2017-Oct-16 04:00N 70°22' E 023°30'611.7
2017-Oct-16 03:30N 70°26' E 023°40'611.4
2017-Oct-16 03:00N 70°32' E 023°39'611.1
2017-Oct-16 02:31N 70°37' E 023°35'510.1
2017-Oct-16 02:01N 70°42' E 023°32'510.6
2017-Oct-16 01:30N 70°47' E 023°43'611.2
2017-Oct-16 01:00N 70°51' E 023°55'511.1
2017-Oct-16 00:30N 70°54' E 024°08'611.4
2017-Oct-16 00:00N 70°58' E 024°20'611.2
2017-Oct-15 23:30N 71°02' E 024°33'511.2
2017-Oct-15 23:00N 71°00' E 024°49'611.5
2017-Oct-15 22:30N 70°59' E 025°06'611.0
2017-Oct-15 22:00N 70°59' E 025°23'4 9.1
2017-Oct-15 21:30N 70°56' E 025°34'511.0
2017-Oct-15 21:00N 70°57' E 025°50'611.4
2017-Oct-15 20:30N 70°57' E 026°07'611.7
2017-Oct-15 19:59N 70°58' E 026°25'611.3
2017-Oct-15 19:30N 70°59' E 026°42'611.0
2017-Oct-15 19:00N 70°59' E 026°59'510.9
2017-Oct-15 18:31N 70°58' E 027°15'2 3.6
2017-Oct-15 18:00N 70°57' E 027°20'611.2
2017-Oct-15 17:30N 71°02' E 027°13'713.6
2017-Oct-15 17:00N 71°06' E 027°28'713.2
2017-Oct-15 16:30N 71°08' E 027°48'713.9
2017-Oct-15 16:00N 71°08' E 028°10'714.2
2017-Oct-15 15:30N 71°04' E 028°28'714.1
2017-Oct-15 15:00N 70°59' E 028°46'1313.6
2017-Oct-15 14:00N 70°51' E 029°19'713.3
2017-Oct-15 13:30N 70°47' E 029°35'712.8
2017-Oct-15 13:00N 70°43' E 029°50'611.6
2017-Oct-15 12:30N 70°38' E 029°44'0 0.1
2017-Oct-15 11:54N 70°38' E 029°43'0 0.0
2017-Oct-15 11:30N 70°38' E 029°43'0 0.0
2017-Oct-15 11:00N 70°38' E 029°43'0 0.0
2017-Oct-15 10:30N 70°38' E 029°43'0 0.0
2017-Oct-15 10:00N 70°38' E 029°43'0 0.0
2017-Oct-15 09:30N 70°38' E 029°43'0 0.0
2017-Oct-15 09:00N 70°38' E 029°43'0 0.0
2017-Oct-15 08:30N 70°38' E 029°43'0 0.0
2017-Oct-15 08:00N 70°38' E 029°43'0 0.0
2017-Oct-15 07:30N 70°38' E 029°43'0 0.0
2017-Oct-15 07:00N 70°38' E 029°43'0 0.0
2017-Oct-15 06:30N 70°38' E 029°43'0 0.0
2017-Oct-15 06:00N 70°38' E 029°43'0 0.0
2017-Oct-15 05:30N 70°38' E 029°43'0 0.0
2017-Oct-15 05:00N 70°38' E 029°43'0 0.0
2017-Oct-15 04:30N 70°38' E 029°43'0 0.0
2017-Oct-15 04:00N 70°38' E 029°43'0 0.0
2017-Oct-15 03:30N 70°38' E 029°43'0 0.0
2017-Oct-15 03:00N 70°38' E 029°43'0 0.0
2017-Oct-15 02:30N 70°38' E 029°43'0 0.0
2017-Oct-15 02:00N 70°38' E 029°43'0 0.0
2017-Oct-15 01:30N 70°38' E 029°43'0 0.0
2017-Oct-15 01:00N 70°38' E 029°43'0 0.0
2017-Oct-15 00:30N 70°38' E 029°43'0 0.0
2017-Oct-15 00:00N 70°38' E 029°43'0 0.0
2017-Oct-14 23:30N 70°38' E 029°43'0 0.0
2017-Oct-14 23:00N 70°38' E 029°43'0 0.0
2017-Oct-14 22:30N 70°38' E 029°43'0 0.0
2017-Oct-14 22:00N 70°38' E 029°43'0 0.0
2017-Oct-14 21:30N 70°38' E 029°43'0 0.0
2017-Oct-14 21:00N 70°38' E 029°43'0 0.0
2017-Oct-14 20:30N 70°38' E 029°43'0 0.0
2017-Oct-14 20:00N 70°38' E 029°43'0 0.0
2017-Oct-14 19:30N 70°38' E 029°43'0 0.0
2017-Oct-14 19:00N 70°38' E 029°43'0 0.0
2017-Oct-14 18:30N 70°38' E 029°43'0 0.0
2017-Oct-14 18:00N 70°38' E 029°43'0 0.0
2017-Oct-14 17:30N 70°38' E 029°43'0 0.0
2017-Oct-14 17:00N 70°38' E 029°43'0 0.0
2017-Oct-14 16:30N 70°38' E 029°43'0 0.0
2017-Oct-14 16:00N 70°38' E 029°43'0 0.0
2017-Oct-14 15:30N 70°38' E 029°43'0 0.0
2017-Oct-14 15:00N 70°38' E 029°43'0 0.0
2017-Oct-14 14:30N 70°38' E 029°43'0 0.0
2017-Oct-14 14:00N 70°38' E 029°43'0 0.0
2017-Oct-14 13:30N 70°38' E 029°43'0 0.0
2017-Oct-14 13:00N 70°38' E 029°43'0 0.0
2017-Oct-14 12:30N 70°38' E 029°43'0 0.0
2017-Oct-14 12:00N 70°38' E 029°43'0 0.0
2017-Oct-14 11:30N 70°38' E 029°43'0 0.0
2017-Oct-14 11:00N 70°38' E 029°43'0 0.0
2017-Oct-14 10:30N 70°38' E 029°43'0 0.0
2017-Oct-14 10:00N 70°38' E 029°43'0 0.0
2017-Oct-14 09:30N 70°38' E 029°43'611.5
2017-Oct-14 09:00N 70°42' E 029°54'612.4
2017-Oct-14 08:30N 70°41' E 030°13'814.8
2017-Oct-14 08:00N 70°37' E 030°30'715.0
2017-Oct-14 07:30N 70°31' E 030°46'815.1
2017-Oct-14 07:00N 70°26' E 031°01'815.1
2017-Oct-14 06:30N 70°18' E 031°06'714.7
2017-Oct-14 06:00N 70°12' E 030°55'715.1
2017-Oct-14 05:30N 70°06' E 030°41'815.1
2017-Oct-14 05:00N 70°00' E 030°26'815.5
2017-Oct-14 04:30N 69°55' E 030°11'815.1
2017-Oct-14 04:00N 69°47' E 030°06'4 7.0
2017-Oct-14 03:30N 69°44' E 030°04'0 0.0
2017-Oct-14 03:00N 69°44' E 030°04'0 0.0
2017-Oct-14 02:30N 69°44' E 030°04'0 0.0
2017-Oct-14 02:00N 69°44' E 030°04'0 0.2
2017-Oct-14 01:30N 69°44' E 030°04'4 8.5
2017-Oct-14 01:00N 69°48' E 030°06'510.0
2017-Oct-14 00:30N 69°53' E 030°07'511.0
2017-Oct-14 00:00N 69°58' E 029°58'510.9
2017-Oct-13 23:30N 70°02' E 029°48'3 5.6
2017-Oct-13 23:00N 70°04' E 029°44'0 0.0
2017-Oct-13 22:28N 70°04' E 029°44'0 0.0
2017-Oct-13 21:58N 70°04' E 029°44'0 0.0
2017-Oct-13 21:28N 70°04' E 029°44'1 1.5
2017-Oct-13 21:00N 70°04' E 029°44'714.7
2017-Oct-13 20:30N 70°03' E 030°05'815.0
2017-Oct-13 20:00N 70°06' E 030°26'815.5
2017-Oct-13 19:30N 70°11' E 030°44'815.4
2017-Oct-13 19:00N 70°16' E 031°02'714.6
2017-Oct-13 18:30N 70°23' E 031°04'714.8
2017-Oct-13 18:00N 70°29' E 030°51'815.2
2017-Oct-13 17:30N 70°34' E 030°34'714.9
2017-Oct-13 17:00N 70°40' E 030°18'815.0
2017-Oct-13 16:30N 70°44' E 030°01'714.7
2017-Oct-13 16:00N 70°48' E 029°42'714.9
2017-Oct-13 15:30N 70°52' E 029°23'714.5
2017-Oct-13 15:00N 70°56' E 029°05'714.5
2017-Oct-13 14:30N 71°00' E 028°46'714.6
2017-Oct-13 14:00N 71°04' E 028°27'714.4
2017-Oct-13 13:30N 71°07' E 028°07'815.1
2017-Oct-13 13:00N 71°08' E 027°44'714.2
2017-Oct-13 12:30N 71°07' E 027°23'815.0
2017-Oct-13 12:00N 71°04' E 027°01'815.3
2017-Oct-13 11:30N 71°02' E 026°39'815.4
2017-Oct-13 11:00N 70°59' E 026°16'715.1
2017-Oct-13 10:30N 70°57' E 025°55'714.6
2017-Oct-13 10:00N 70°56' E 025°32'714.4
2017-Oct-13 09:30N 70°59' E 025°12'815.4
2017-Oct-13 09:00N 70°60' E 024°49'2 5.0
2017-Oct-13 08:30N 70°60' E 024°41'4 8.1
2017-Oct-13 08:00N 71°01' E 024°29'815.8
2017-Oct-13 07:30N 70°55' E 024°12'816.0
2017-Oct-13 07:00N 70°50' E 023°54'816.0
2017-Oct-13 06:30N 70°44' E 023°36'4 8.5
2017-Oct-13 05:59N 70°40' E 023°40'0 0.3
2017-Oct-13 04:25N 70°40' E 023°39'1714.0
2017-Oct-13 03:11N 70°23' E 023°32'1115.4
2017-Oct-13 02:27N 70°14' E 023°11'5 0.9
2017-Oct-12 20:53N 70°12' E 022°58'614.2
2017-Oct-12 20:30N 70°14' E 022°43'714.3
2017-Oct-12 19:59N 70°16' E 022°22'2 3.3
2017-Oct-12 19:29N 70°14' E 022°21'1 2.8
2017-Oct-12 19:00N 70°15' E 022°19'713.8
2017-Oct-12 18:30N 70°20' E 022°04'814.9
2017-Oct-12 18:00N 70°24' E 021°44'2214.0
2017-Oct-12 16:24N 70°06' E 021°03'410.2
2017-Oct-12 16:00N 70°02' E 020°59'0 0.1
2017-Oct-12 15:29N 70°02' E 020°59'0 0.0
2017-Oct-12 14:59N 70°02' E 020°59'3 6.1
2017-Oct-12 14:29N 70°03' E 020°51'715.4
2017-Oct-12 14:00N 70°01' E 020°30'814.9
2017-Oct-12 13:30N 69°58' E 020°09'715.2
2017-Oct-12 13:00N 69°53' E 019°53'715.0
2017-Oct-12 12:30N 69°49' E 019°34'815.2
2017-Oct-12 12:00N 69°47' E 019°13'611.3
2017-Oct-12 11:29N 69°42' E 019°01'0 0.0
2017-Oct-12 10:59N 69°42' E 019°01'0 0.0
2017-Oct-12 10:29N 69°42' E 019°01'0 0.0
2017-Oct-12 09:59N 69°42' E 019°01'0 0.0
2017-Oct-12 09:29N 69°42' E 019°01'0 0.0
2017-Oct-12 08:59N 69°42' E 019°01'0 0.0
2017-Oct-12 08:29N 69°42' E 019°01'0 0.0
2017-Oct-12 07:59N 69°42' E 019°01'0 0.0
2017-Oct-12 07:29N 69°42' E 019°01'0 0.0
2017-Oct-12 06:59N 69°42' E 019°01'0 0.0
2017-Oct-12 06:29N 69°42' E 019°01'0 0.0
2017-Oct-12 05:59N 69°42' E 019°01'0 0.0
2017-Oct-12 05:29N 69°42' E 019°01'0 0.0
2017-Oct-12 04:59N 69°42' E 019°01'0 0.0
2017-Oct-12 04:30N 69°42' E 019°01'0 0.0
2017-Oct-12 04:00N 69°42' E 019°01'0 0.0
2017-Oct-12 03:31N 69°42' E 019°01'0 0.0
2017-Oct-12 03:00N 69°42' E 019°01'0 0.0
2017-Oct-12 02:30N 69°42' E 019°01'0 0.0
2017-Oct-12 02:00N 69°42' E 019°01'0 0.0
2017-Oct-12 01:30N 69°42' E 019°01'0 0.0
2017-Oct-12 01:00N 69°42' E 019°01'0 0.0
2017-Oct-12 00:30N 69°42' E 019°01'4 7.4
2017-Oct-12 00:00N 69°39' E 018°58'714.3
2017-Oct-11 23:30N 69°33' E 018°45'714.3
2017-Oct-11 23:00N 69°31' E 018°25'713.5
2017-Oct-11 22:30N 69°28' E 018°08'713.6
2017-Oct-11 22:01N 69°21' E 018°06'612.4
2017-Oct-11 21:30N 69°16' E 017°58'2 3.6
2017-Oct-11 20:58N 69°14' E 017°58'0 0.0
2017-Oct-11 20:30N 69°14' E 017°58'3 5.9
2017-Oct-11 20:00N 69°11' E 018°00'714.0
2017-Oct-11 19:30N 69°08' E 017°43'714.2
2017-Oct-11 19:00N 69°05' E 017°24'714.3
2017-Oct-11 18:30N 68°59' E 017°12'714.4
2017-Oct-11 18:00N 68°55' E 016°57'714.5
2017-Oct-11 17:30N 68°50' E 016°41'4 6.8
2017-Oct-11 16:58N 68°48' E 016°33'55 3.3
2017-Oct-10 23:59N 68°14' E 014°34'0 0.0
2017-Oct-10 23:29N 68°14' E 014°34'0 0.0
2017-Oct-10 22:59N 68°14' E 014°34'0 0.3
2017-Oct-10 22:30N 68°14' E 014°34'713.1
2017-Oct-10 22:00N 68°07' E 014°31'714.7
2017-Oct-10 21:30N 68°00' E 014°26'714.9
2017-Oct-10 21:00N 67°53' E 014°22'815.0
2017-Oct-10 20:30N 67°45' E 014°18'715.1
2017-Oct-10 20:00N 67°38' E 014°17'815.2
2017-Oct-10 19:30N 67°31' E 014°22'714.8
2017-Oct-10 19:00N 67°24' E 014°26'713.2
2017-Oct-10 18:30N 67°17' E 014°22'1 1.4
2017-Oct-10 17:58N 67°17' E 014°24'0 0.0
2017-Oct-10 17:28N 67°17' E 014°24'0 0.0
2017-Oct-10 16:58N 67°17' E 014°24'0 0.0
2017-Oct-10 16:28N 67°17' E 014°24'0 0.0
2017-Oct-10 15:58N 67°17' E 014°24'1 1.4
2017-Oct-10 15:30N 67°17' E 014°22'510.6
2017-Oct-10 15:00N 67°14' E 014°11'1514.9
2017-Oct-10 14:00N 67°02' E 013°49'714.4
2017-Oct-10 13:30N 66°58' E 013°34'613.0
2017-Oct-10 13:01N 66°53' E 013°24'714.2
2017-Oct-10 12:30N 66°47' E 013°14'815.0
2017-Oct-10 12:00N 66°40' E 013°07'714.1
2017-Oct-10 11:30N 66°33' E 013°02'713.1
2017-Oct-10 11:00N 66°26' E 012°60'714.6
2017-Oct-10 10:31N 66°19' E 012°57'814.8
2017-Oct-10 10:00N 66°12' E 012°52'714.3
2017-Oct-10 09:30N 66°06' E 012°43'5 9.9
2017-Oct-10 09:00N 66°01' E 012°38'0 0.0
2017-Oct-10 08:30N 66°01' E 012°38'0 0.0
2017-Oct-10 08:00N 66°01' E 012°38'0 0.0
2017-Oct-10 07:30N 66°01' E 012°38'0 0.3
2017-Oct-10 07:00N 66°02' E 012°38'713.5
2017-Oct-10 06:30N 65°57' E 012°26'714.3
2017-Oct-10 06:00N 65°50' E 012°22'714.6
2017-Oct-10 05:30N 65°43' E 012°17'714.6
2017-Oct-10 05:00N 65°36' E 012°10'714.6
2017-Oct-10 04:30N 65°30' E 012°00'613.1
2017-Oct-10 04:00N 65°24' E 011°58'611.3
2017-Oct-10 03:30N 65°18' E 011°60'714.7
2017-Oct-10 03:00N 65°12' E 011°52'714.6
2017-Oct-10 02:31N 65°05' E 011°46'713.9
2017-Oct-10 02:01N 64°59' E 011°36'714.1
2017-Oct-10 01:30N 64°55' E 011°23'5 9.9
2017-Oct-10 01:00N 64°52' E 011°14'0 0.0
2017-Oct-10 00:30N 64°52' E 011°14'2 4.2
2017-Oct-10 00:01N 64°50' E 011°11'815.3
2017-Oct-09 23:30N 64°44' E 010°58'815.1
2017-Oct-09 23:00N 64°39' E 010°46'715.0
2017-Oct-09 22:30N 64°34' E 010°34'714.6
2017-Oct-09 22:00N 64°28' E 010°22'714.7
2017-Oct-09 21:30N 64°23' E 010°10'815.4
2017-Oct-09 21:00N 64°18' E 009°58'815.3
2017-Oct-09 20:30N 64°12' E 009°46'815.5
2017-Oct-09 20:00N 64°05' E 009°38'715.0
2017-Oct-09 19:30N 63°58' E 009°30'815.2
2017-Oct-09 19:00N 63°51' E 009°23'815.1
2017-Oct-09 18:30N 63°44' E 009°18'715.0
2017-Oct-09 18:00N 63°37' E 009°16'713.0
2017-Oct-09 17:30N 63°31' E 009°09'714.4
2017-Oct-09 17:00N 63°28' E 008°54'714.4
2017-Oct-09 16:30N 63°25' E 008°39'714.5
2017-Oct-09 16:00N 63°22' E 008°25'714.7
2017-Oct-09 15:30N 63°17' E 008°12'714.9
2017-Oct-09 15:00N 63°14' E 007°58'714.9
2017-Oct-09 14:30N 63°10' E 007°44'714.8
2017-Oct-09 14:00N 63°06' E 007°30'714.3
2017-Oct-09 13:30N 63°03' E 007°16'714.2
2017-Oct-09 13:00N 63°00' E 007°01'714.1
2017-Oct-09 12:30N 62°56' E 006°49'714.8
2017-Oct-09 12:00N 62°50' E 006°40'714.9
2017-Oct-09 11:30N 62°44' E 006°31'714.7
2017-Oct-09 11:00N 62°38' E 006°21'714.6
2017-Oct-09 10:30N 62°33' E 006°10'4 7.8
2017-Oct-09 09:59N 62°29' E 006°12'0 0.0
2017-Oct-09 09:29N 62°29' E 006°12'0 0.0
2017-Oct-09 08:59N 62°29' E 006°12'0 0.0
2017-Oct-09 08:29N 62°29' E 006°12'0 0.0
2017-Oct-09 07:59N 62°29' E 006°12'0 0.0
2017-Oct-09 07:29N 62°29' E 006°12'0 0.0
2017-Oct-09 06:59N 62°29' E 006°12'0 0.1
2017-Oct-09 06:29N 62°29' E 006°12'0 0.0
2017-Oct-09 05:59N 62°29' E 006°12'0 0.0
2017-Oct-09 05:29N 62°29' E 006°12'0 0.0
2017-Oct-09 05:00N 62°29' E 006°12'0 0.0
2017-Oct-09 04:30N 62°29' E 006°12'0 0.0
2017-Oct-09 04:00N 62°29' E 006°12'0 0.0
2017-Oct-09 03:30N 62°29' E 006°12'3 5.9
2017-Oct-09 03:00N 62°28' E 006°05'713.9
2017-Oct-09 02:30N 62°25' E 005°52'713.0
2017-Oct-09 02:00N 62°19' E 005°45'713.7
2017-Oct-09 01:30N 62°18' E 005°31'713.6
2017-Oct-09 01:00N 62°15' E 005°17'714.0
2017-Oct-09 00:30N 62°11' E 005°05'713.6
2017-Oct-09 00:00N 62°05' E 005°07'714.0
2017-Oct-08 23:30N 61°58' E 005°09'511.0
2017-Oct-08 23:00N 61°53' E 005°12'4 8.2
2017-Oct-08 22:30N 61°49' E 005°09'713.9
2017-Oct-08 22:00N 61°44' E 004°58'714.1
2017-Oct-08 21:30N 61°37' E 004°59'1 2.7
2017-Oct-08 20:59N 61°36' E 005°02'0 0.0
2017-Oct-08 20:29N 61°36' E 005°02'3 5.7
2017-Oct-08 20:00N 61°33' E 004°60'713.7
2017-Oct-08 19:30N 61°27' E 004°55'714.3
2017-Oct-08 19:00N 61°21' E 004°48'714.1
2017-Oct-08 18:30N 61°14' E 004°43'713.9
2017-Oct-08 18:00N 61°07' E 004°45'714.0
2017-Oct-08 17:29N 61°00' E 004°45'714.1
2017-Oct-08 17:00N 60°53' E 004°46'713.2
2017-Oct-08 16:30N 60°46' E 004°46'714.4
2017-Oct-08 16:00N 60°40' E 004°51'714.4
2017-Oct-08 15:30N 60°33' E 004°56'714.5
2017-Oct-08 15:00N 60°26' E 005°02'712.7
2017-Oct-08 14:29N 60°24' E 005°15'2 4.8
2017-Oct-08 14:00N 60°23' E 005°19'0 0.0
2017-Oct-08 13:30N 60°23' E 005°19'0 0.0
2017-Oct-08 13:00N 60°23' E 005°19'0 0.0
2017-Oct-08 12:30N 60°23' E 005°19'0 0.0
2017-Oct-08 12:00N 60°23' E 005°19'0 0.0
2017-Oct-08 11:30N 60°23' E 005°19'0 0.0
2017-Oct-08 10:57N 60°23' E 005°19'2 4.4
2017-Oct-08 10:30N 60°24' E 005°15'510.6
2017-Oct-08 10:00N 60°19' E 005°12'713.1
2017-Oct-08 09:30N 60°12' E 005°12'714.3
2017-Oct-08 09:00N 60°06' E 005°19'714.4
2017-Oct-08 08:30N 59°59' E 005°22'815.3
2017-Oct-08 08:00N 59°53' E 005°32'713.8
2017-Oct-08 07:30N 59°47' E 005°33'612.0
2017-Oct-08 07:00N 59°42' E 005°26'611.9
2017-Oct-08 06:30N 59°37' E 005°18'511.1
2017-Oct-08 06:00N 59°32' E 005°14'713.3
2017-Oct-08 05:30N 59°26' E 005°14'613.0
2017-Oct-08 05:00N 59°20' E 005°19'0 0.9
2017-Oct-08 04:30N 59°20' E 005°18'0 0.0
2017-Oct-08 04:00N 59°20' E 005°18'0 0.0
2017-Oct-08 03:31N 59°20' E 005°18'  
Track history (hours):
 
Tides and Currents Weather Stations Pressure Air Temp Water Temp Dewpoint Dewpoint Depression Visibility Wind Speed Wind Dir Waves Ship Positions

Nordkinn

Last reported at 2017-Oct-18 03:30 UTC. Time now 2017-Oct-18 03:39 UTC.
Position N 66°30' E 012°06'.

Length 80 m; draft 6.2 m.

Type: Cargo ship. MMSI: 231711000.

Date/timePositionNaut miles runAvg speedWind from/ knotsBaromVisibWave heightAir tempDewpointWater temp
2017-Oct-18 03:30N 66°30' E 012°06'2 3.5
2017-Oct-18 03:00N 66°29' E 012°09'713.9
2017-Oct-18 02:30N 66°34' E 012°20'714.3
2017-Oct-18 02:00N 66°41' E 012°22'4414.4
2017-Oct-17 22:59N 67°24' E 012°38'714.6
2017-Oct-17 22:30N 67°31' E 012°41'714.2
2017-Oct-17 22:00N 67°38' E 012°43'1 2.7
2017-Oct-17 21:29N 67°39' E 012°42'0 0.0
2017-Oct-17 20:59N 67°39' E 012°42'0 0.0
2017-Oct-17 20:29N 67°39' E 012°42'0 0.0
2017-Oct-17 19:59N 67°39' E 012°42'0 0.0
2017-Oct-17 19:29N 67°39' E 012°42'0 0.0
2017-Oct-17 18:59N 67°39' E 012°42'0 0.0
2017-Oct-17 18:29N 67°39' E 012°42'0 0.0
2017-Oct-17 17:59N 67°39' E 012°42'0 0.0
2017-Oct-17 17:29N 67°39' E 012°42'0 0.0
2017-Oct-17 16:59N 67°39' E 012°42'0 0.0
2017-Oct-17 16:29N 67°39' E 012°42'0 0.7
2017-Oct-17 16:00N 67°39' E 012°43'510.6
2017-Oct-17 15:30N 67°42' E 012°54'714.0
2017-Oct-17 15:00N 67°47' E 013°07'713.7
2017-Oct-17 14:30N 67°52' E 013°20'713.9
2017-Oct-17 14:00N 67°57' E 013°33'714.1
2017-Oct-17 13:30N 68°02' E 013°46'713.7
2017-Oct-17 13:00N 68°07' E 013°59'713.5
2017-Oct-17 12:30N 68°12' E 014°10'612.3
2017-Oct-17 12:00N 68°18' E 014°17'713.3
2017-Oct-17 11:30N 68°24' E 014°18'713.9
2017-Oct-17 11:00N 68°31' E 014°20'714.0
2017-Oct-17 10:30N 68°38' E 014°23'713.6
2017-Oct-17 10:00N 68°45' E 014°21'713.2
2017-Oct-17 09:30N 68°50' E 014°32'612.8
2017-Oct-17 09:00N 68°52' E 014°49'611.7
2017-Oct-17 08:30N 68°55' E 015°03'1 1.5
2017-Oct-17 08:00N 68°55' E 015°05'0 0.0
2017-Oct-17 07:30N 68°55' E 015°05'0 0.0
2017-Oct-17 07:00N 68°55' E 015°05'0 0.0
2017-Oct-17 06:30N 68°55' E 015°05'1 2.2
2017-Oct-17 06:00N 68°55' E 015°02'611.8
2017-Oct-17 05:30N 69°01' E 015°00'612.6
2017-Oct-17 05:00N 69°01' E 015°18'713.3
2017-Oct-17 04:30N 68°55' E 015°24'4 8.0
2017-Oct-17 04:00N 68°55' E 015°35'510.9
2017-Oct-17 03:30N 68°59' E 015°46'714.7
2017-Oct-17 03:00N 68°57' E 016°06'714.6
2017-Oct-17 02:30N 68°54' E 016°23'815.0
2017-Oct-17 02:00N 68°51' E 016°43'815.0
2017-Oct-17 01:30N 68°56' E 017°00'714.8
2017-Oct-17 01:00N 69°01' E 017°15'714.2
2017-Oct-17 00:30N 69°06' E 017°28'815.0
2017-Oct-17 00:00N 69°09' E 017°48'611.0
2017-Oct-16 23:30N 69°13' E 017°58'714.1
2017-Oct-16 23:00N 69°20' E 018°02'714.2
2017-Oct-16 22:30N 69°27' E 018°07'713.8
2017-Oct-16 22:00N 69°31' E 018°23'714.6
2017-Oct-16 21:30N 69°33' E 018°42'712.8
2017-Oct-16 21:00N 69°38' E 018°57'0 0.0
2017-Oct-16 20:28N 69°38' E 018°57'0 0.0
2017-Oct-16 19:58N 69°38' E 018°57'0 0.0
2017-Oct-16 19:28N 69°38' E 018°57'1 1.6
2017-Oct-16 19:00N 69°38' E 018°57'4 7.9
2017-Oct-16 18:29N 69°42' E 019°01'0 0.0
2017-Oct-16 18:00N 69°42' E 019°01'510.1
2017-Oct-16 17:31N 69°46' E 019°10'714.3
2017-Oct-16 17:00N 69°49' E 019°29'714.6
2017-Oct-16 16:30N 69°52' E 019°49'714.3
2017-Oct-16 16:00N 69°57' E 020°05'714.1
2017-Oct-16 15:30N 69°60' E 020°23'714.4
2017-Oct-16 15:00N 70°02' E 020°43'713.5
2017-Oct-16 14:30N 70°06' E 020°58'1413.8
2017-Oct-16 13:30N 70°17' E 021°22'714.2
2017-Oct-16 13:00N 70°23' E 021°37'612.4
2017-Oct-16 12:30N 70°22' E 021°56'714.6
2017-Oct-16 12:00N 70°19' E 022°15'714.6
2017-Oct-16 11:30N 70°15' E 022°34'1 1.8
2017-Oct-16 11:00N 70°16' E 022°37'0 0.0
2017-Oct-16 10:30N 70°16' E 022°37'0 0.0
2017-Oct-16 10:00N 70°16' E 022°37'0 0.0
2017-Oct-16 09:30N 70°16' E 022°37'0 0.0
2017-Oct-16 09:00N 70°16' E 022°37'0 0.0
2017-Oct-16 08:30N 70°16' E 022°37'0 0.0
2017-Oct-16 08:00N 70°16' E 022°37'0 0.0
2017-Oct-16 07:30N 70°16' E 022°37'0 0.0
2017-Oct-16 07:00N 70°16' E 022°37'0 0.0
2017-Oct-16 06:30N 70°16' E 022°37'0 0.4
2017-Oct-16 06:00N 70°16' E 022°37'3 6.8
2017-Oct-16 05:30N 70°14' E 022°46'611.4
2017-Oct-16 05:00N 70°15' E 023°03'611.6
2017-Oct-16 04:30N 70°17' E 023°18'611.7
2017-Oct-16 04:00N 70°22' E 023°30'611.7
2017-Oct-16 03:30N 70°26' E 023°40'611.4
2017-Oct-16 03:00N 70°32' E 023°39'611.1
2017-Oct-16 02:31N 70°37' E 023°35'510.1
2017-Oct-16 02:01N 70°42' E 023°32'510.6
2017-Oct-16 01:30N 70°47' E 023°43'611.2
2017-Oct-16 01:00N 70°51' E 023°55'511.1
2017-Oct-16 00:30N 70°54' E 024°08'611.4
2017-Oct-16 00:00N 70°58' E 024°20'611.2
2017-Oct-15 23:30N 71°02' E 024°33'511.2
2017-Oct-15 23:00N 71°00' E 024°49'611.5
2017-Oct-15 22:30N 70°59' E 025°06'611.0
2017-Oct-15 22:00N 70°59' E 025°23'4 9.1
2017-Oct-15 21:30N 70°56' E 025°34'511.0
2017-Oct-15 21:00N 70°57' E 025°50'611.4
2017-Oct-15 20:30N 70°57' E 026°07'611.7
2017-Oct-15 19:59N 70°58' E 026°25'611.3
2017-Oct-15 19:30N 70°59' E 026°42'611.0
2017-Oct-15 19:00N 70°59' E 026°59'510.9
2017-Oct-15 18:31N 70°58' E 027°15'2 3.6
2017-Oct-15 18:00N 70°57' E 027°20'611.2
2017-Oct-15 17:30N 71°02' E 027°13'713.6
2017-Oct-15 17:00N 71°06' E 027°28'713.2
2017-Oct-15 16:30N 71°08' E 027°48'713.9
2017-Oct-15 16:00N 71°08' E 028°10'714.2
2017-Oct-15 15:30N 71°04' E 028°28'714.1
2017-Oct-15 15:00N 70°59' E 028°46'1313.6
2017-Oct-15 14:00N 70°51' E 029°19'713.3
2017-Oct-15 13:30N 70°47' E 029°35'712.8
2017-Oct-15 13:00N 70°43' E 029°50'611.6
2017-Oct-15 12:30N 70°38' E 029°44'0 0.1
2017-Oct-15 11:54N 70°38' E 029°43'0 0.0
2017-Oct-15 11:30N 70°38' E 029°43'0 0.0
2017-Oct-15 11:00N 70°38' E 029°43'0 0.0
2017-Oct-15 10:30N 70°38' E 029°43'0 0.0
2017-Oct-15 10:00N 70°38' E 029°43'0 0.0
2017-Oct-15 09:30N 70°38' E 029°43'0 0.0
2017-Oct-15 09:00N 70°38' E 029°43'0 0.0
2017-Oct-15 08:30N 70°38' E 029°43'0 0.0
2017-Oct-15 08:00N 70°38' E 029°43'0 0.0
2017-Oct-15 07:30N 70°38' E 029°43'0 0.0
2017-Oct-15 07:00N 70°38' E 029°43'0 0.0
2017-Oct-15 06:30N 70°38' E 029°43'0 0.0
2017-Oct-15 06:00N 70°38' E 029°43'0 0.0
2017-Oct-15 05:30N 70°38' E 029°43'0 0.0
2017-Oct-15 05:00N 70°38' E 029°43'0 0.0
2017-Oct-15 04:30N 70°38' E 029°43'0 0.0
2017-Oct-15 04:00N 70°38' E 029°43'0 0.0
2017-Oct-15 03:30N 70°38' E 029°43'0 0.0
2017-Oct-15 03:00N 70°38' E 029°43'0 0.0
2017-Oct-15 02:30N 70°38' E 029°43'0 0.0
2017-Oct-15 02:00N 70°38' E 029°43'0 0.0
2017-Oct-15 01:30N 70°38' E 029°43'0 0.0
2017-Oct-15 01:00N 70°38' E 029°43'0 0.0
2017-Oct-15 00:30N 70°38' E 029°43'0 0.0
2017-Oct-15 00:00N 70°38' E 029°43'0 0.0
2017-Oct-14 23:30N 70°38' E 029°43'0 0.0
2017-Oct-14 23:00N 70°38' E 029°43'0 0.0
2017-Oct-14 22:30N 70°38' E 029°43'0 0.0
2017-Oct-14 22:00N 70°38' E 029°43'0 0.0
2017-Oct-14 21:30N 70°38' E 029°43'0 0.0
2017-Oct-14 21:00N 70°38' E 029°43'0 0.0
2017-Oct-14 20:30N 70°38' E 029°43'0 0.0
2017-Oct-14 20:00N 70°38' E 029°43'0 0.0
2017-Oct-14 19:30N 70°38' E 029°43'0 0.0
2017-Oct-14 19:00N 70°38' E 029°43'0 0.0
2017-Oct-14 18:30N 70°38' E 029°43'0 0.0
2017-Oct-14 18:00N 70°38' E 029°43'0 0.0
2017-Oct-14 17:30N 70°38' E 029°43'0 0.0
2017-Oct-14 17:00N 70°38' E 029°43'0 0.0
2017-Oct-14 16:30N 70°38' E 029°43'0 0.0
2017-Oct-14 16:00N 70°38' E 029°43'0 0.0
2017-Oct-14 15:30N 70°38' E 029°43'0 0.0
2017-Oct-14 15:00N 70°38' E 029°43'0 0.0
2017-Oct-14 14:30N 70°38' E 029°43'0 0.0
2017-Oct-14 14:00N 70°38' E 029°43'0 0.0
2017-Oct-14 13:30N 70°38' E 029°43'0 0.0
2017-Oct-14 13:00N 70°38' E 029°43'0 0.0
2017-Oct-14 12:30N 70°38' E 029°43'0 0.0
2017-Oct-14 12:00N 70°38' E 029°43'0 0.0
2017-Oct-14 11:30N 70°38' E 029°43'0 0.0
2017-Oct-14 11:00N 70°38' E 029°43'0 0.0
2017-Oct-14 10:30N 70°38' E 029°43'0 0.0
2017-Oct-14 10:00N 70°38' E 029°43'0 0.0
2017-Oct-14 09:30N 70°38' E 029°43'611.5
2017-Oct-14 09:00N 70°42' E 029°54'612.4
2017-Oct-14 08:30N 70°41' E 030°13'814.8
2017-Oct-14 08:00N 70°37' E 030°30'715.0
2017-Oct-14 07:30N 70°31' E 030°46'815.1
2017-Oct-14 07:00N 70°26' E 031°01'815.1
2017-Oct-14 06:30N 70°18' E 031°06'714.7
2017-Oct-14 06:00N 70°12' E 030°55'715.1
2017-Oct-14 05:30N 70°06' E 030°41'815.1
2017-Oct-14 05:00N 70°00' E 030°26'815.5
2017-Oct-14 04:30N 69°55' E 030°11'815.1
2017-Oct-14 04:00N 69°47' E 030°06'4 7.0
2017-Oct-14 03:30N 69°44' E 030°04'0 0.0
2017-Oct-14 03:00N 69°44' E 030°04'0 0.0
2017-Oct-14 02:30N 69°44' E 030°04'0 0.0
2017-Oct-14 02:00N 69°44' E 030°04'0 0.2
2017-Oct-14 01:30N 69°44' E 030°04'4 8.5
2017-Oct-14 01:00N 69°48' E 030°06'510.0
2017-Oct-14 00:30N 69°53' E 030°07'511.0
2017-Oct-14 00:00N 69°58' E 029°58'510.9
2017-Oct-13 23:30N 70°02' E 029°48'3 5.6
2017-Oct-13 23:00N 70°04' E 029°44'0 0.0
2017-Oct-13 22:28N 70°04' E 029°44'0 0.0
2017-Oct-13 21:58N 70°04' E 029°44'0 0.0
2017-Oct-13 21:28N 70°04' E 029°44'1 1.5
2017-Oct-13 21:00N 70°04' E 029°44'714.7
2017-Oct-13 20:30N 70°03' E 030°05'815.0
2017-Oct-13 20:00N 70°06' E 030°26'815.5
2017-Oct-13 19:30N 70°11' E 030°44'815.4
2017-Oct-13 19:00N 70°16' E 031°02'714.6
2017-Oct-13 18:30N 70°23' E 031°04'714.8
2017-Oct-13 18:00N 70°29' E 030°51'815.2
2017-Oct-13 17:30N 70°34' E 030°34'714.9
2017-Oct-13 17:00N 70°40' E 030°18'815.0
2017-Oct-13 16:30N 70°44' E 030°01'714.7
2017-Oct-13 16:00N 70°48' E 029°42'714.9
2017-Oct-13 15:30N 70°52' E 029°23'714.5
2017-Oct-13 15:00N 70°56' E 029°05'714.5
2017-Oct-13 14:30N 71°00' E 028°46'714.6
2017-Oct-13 14:00N 71°04' E 028°27'714.4
2017-Oct-13 13:30N 71°07' E 028°07'815.1
2017-Oct-13 13:00N 71°08' E 027°44'714.2
2017-Oct-13 12:30N 71°07' E 027°23'815.0
2017-Oct-13 12:00N 71°04' E 027°01'815.3
2017-Oct-13 11:30N 71°02' E 026°39'815.4
2017-Oct-13 11:00N 70°59' E 026°16'715.1
2017-Oct-13 10:30N 70°57' E 025°55'714.6
2017-Oct-13 10:00N 70°56' E 025°32'714.4
2017-Oct-13 09:30N 70°59' E 025°12'815.4
2017-Oct-13 09:00N 70°60' E 024°49'2 5.0
2017-Oct-13 08:30N 70°60' E 024°41'4 8.1
2017-Oct-13 08:00N 71°01' E 024°29'815.8
2017-Oct-13 07:30N 70°55' E 024°12'816.0
2017-Oct-13 07:00N 70°50' E 023°54'816.0
2017-Oct-13 06:30N 70°44' E 023°36'4 8.5
2017-Oct-13 05:59N 70°40' E 023°40'0 0.3
2017-Oct-13 04:25N 70°40' E 023°39'1714.0
2017-Oct-13 03:11N 70°23' E 023°32'1115.4
2017-Oct-13 02:27N 70°14' E 023°11'5 0.9
2017-Oct-12 20:53N 70°12' E 022°58'614.2
2017-Oct-12 20:30N 70°14' E 022°43'714.3
2017-Oct-12 19:59N 70°16' E 022°22'2 3.3
2017-Oct-12 19:29N 70°14' E 022°21'1 2.8
2017-Oct-12 19:00N 70°15' E 022°19'713.8
2017-Oct-12 18:30N 70°20' E 022°04'814.9
2017-Oct-12 18:00N 70°24' E 021°44'2214.0
2017-Oct-12 16:24N 70°06' E 021°03'410.2
2017-Oct-12 16:00N 70°02' E 020°59'0 0.1
2017-Oct-12 15:29N 70°02' E 020°59'0 0.0
2017-Oct-12 14:59N 70°02' E 020°59'3 6.1
2017-Oct-12 14:29N 70°03' E 020°51'715.4
2017-Oct-12 14:00N 70°01' E 020°30'814.9
2017-Oct-12 13:30N 69°58' E 020°09'715.2
2017-Oct-12 13:00N 69°53' E 019°53'715.0
2017-Oct-12 12:30N 69°49' E 019°34'815.2
2017-Oct-12 12:00N 69°47' E 019°13'611.3
2017-Oct-12 11:29N 69°42' E 019°01'0 0.0
2017-Oct-12 10:59N 69°42' E 019°01'0 0.0
2017-Oct-12 10:29N 69°42' E 019°01'0 0.0
2017-Oct-12 09:59N 69°42' E 019°01'0 0.0
2017-Oct-12 09:29N 69°42' E 019°01'0 0.0
2017-Oct-12 08:59N 69°42' E 019°01'0 0.0
2017-Oct-12 08:29N 69°42' E 019°01'0 0.0
2017-Oct-12 07:59N 69°42' E 019°01'0 0.0
2017-Oct-12 07:29N 69°42' E 019°01'0 0.0
2017-Oct-12 06:59N 69°42' E 019°01'0 0.0
2017-Oct-12 06:29N 69°42' E 019°01'0 0.0
2017-Oct-12 05:59N 69°42' E 019°01'0 0.0
2017-Oct-12 05:29N 69°42' E 019°01'0 0.0
2017-Oct-12 04:59N 69°42' E 019°01'0 0.0
2017-Oct-12 04:30N 69°42' E 019°01'0 0.0
2017-Oct-12 04:00N 69°42' E 019°01'0 0.0
2017-Oct-12 03:31N 69°42' E 019°01'0 0.0
2017-Oct-12 03:00N 69°42' E 019°01'0 0.0
2017-Oct-12 02:30N 69°42' E 019°01'0 0.0
2017-Oct-12 02:00N 69°42' E 019°01'0 0.0
2017-Oct-12 01:30N 69°42' E 019°01'0 0.0
2017-Oct-12 01:00N 69°42' E 019°01'0 0.0
2017-Oct-12 00:30N 69°42' E 019°01'4 7.4
2017-Oct-12 00:00N 69°39' E 018°58'714.3
2017-Oct-11 23:30N 69°33' E 018°45'714.3
2017-Oct-11 23:00N 69°31' E 018°25'713.5
2017-Oct-11 22:30N 69°28' E 018°08'713.6
2017-Oct-11 22:01N 69°21' E 018°06'612.4
2017-Oct-11 21:30N 69°16' E 017°58'2 3.6
2017-Oct-11 20:58N 69°14' E 017°58'0 0.0
2017-Oct-11 20:30N 69°14' E 017°58'3 5.9
2017-Oct-11 20:00N 69°11' E 018°00'714.0
2017-Oct-11 19:30N 69°08' E 017°43'714.2
2017-Oct-11 19:00N 69°05' E 017°24'714.3
2017-Oct-11 18:30N 68°59' E 017°12'714.4
2017-Oct-11 18:00N 68°55' E 016°57'714.5
2017-Oct-11 17:30N 68°50' E 016°41'4 6.8
2017-Oct-11 16:58N 68°48' E 016°33'55 3.3
2017-Oct-10 23:59N 68°14' E 014°34'0 0.0
2017-Oct-10 23:29N 68°14' E 014°34'0 0.0
2017-Oct-10 22:59N 68°14' E 014°34'0 0.3
2017-Oct-10 22:30N 68°14' E 014°34'713.1
2017-Oct-10 22:00N 68°07' E 014°31'714.7
2017-Oct-10 21:30N 68°00' E 014°26'714.9
2017-Oct-10 21:00N 67°53' E 014°22'815.0
2017-Oct-10 20:30N 67°45' E 014°18'715.1
2017-Oct-10 20:00N 67°38' E 014°17'815.2
2017-Oct-10 19:30N 67°31' E 014°22'714.8
2017-Oct-10 19:00N 67°24' E 014°26'713.2
2017-Oct-10 18:30N 67°17' E 014°22'1 1.4
2017-Oct-10 17:58N 67°17' E 014°24'0 0.0
2017-Oct-10 17:28N 67°17' E 014°24'0 0.0
2017-Oct-10 16:58N 67°17' E 014°24'0 0.0
2017-Oct-10 16:28N 67°17' E 014°24'0 0.0
2017-Oct-10 15:58N 67°17' E 014°24'1 1.4
2017-Oct-10 15:30N 67°17' E 014°22'510.6
2017-Oct-10 15:00N 67°14' E 014°11'1514.9
2017-Oct-10 14:00N 67°02' E 013°49'714.4
2017-Oct-10 13:30N 66°58' E 013°34'613.0
2017-Oct-10 13:01N 66°53' E 013°24'714.2
2017-Oct-10 12:30N 66°47' E 013°14'815.0
2017-Oct-10 12:00N 66°40' E 013°07'714.1
2017-Oct-10 11:30N 66°33' E 013°02'713.1
2017-Oct-10 11:00N 66°26' E 012°60'714.6
2017-Oct-10 10:31N 66°19' E 012°57'814.8
2017-Oct-10 10:00N 66°12' E 012°52'714.3
2017-Oct-10 09:30N 66°06' E 012°43'5 9.9
2017-Oct-10 09:00N 66°01' E 012°38'0 0.0
2017-Oct-10 08:30N 66°01' E 012°38'0 0.0
2017-Oct-10 08:00N 66°01' E 012°38'0 0.0
2017-Oct-10 07:30N 66°01' E 012°38'0 0.3
2017-Oct-10 07:00N 66°02' E 012°38'713.5
2017-Oct-10 06:30N 65°57' E 012°26'714.3
2017-Oct-10 06:00N 65°50' E 012°22'714.6
2017-Oct-10 05:30N 65°43' E 012°17'714.6
2017-Oct-10 05:00N 65°36' E 012°10'714.6
2017-Oct-10 04:30N 65°30' E 012°00'613.1
2017-Oct-10 04:00N 65°24' E 011°58'611.3
2017-Oct-10 03:30N 65°18' E 011°60'714.7
2017-Oct-10 03:00N 65°12' E 011°52'714.6
2017-Oct-10 02:31N 65°05' E 011°46'713.9
2017-Oct-10 02:01N 64°59' E 011°36'714.1
2017-Oct-10 01:30N 64°55' E 011°23'5 9.9
2017-Oct-10 01:00N 64°52' E 011°14'0 0.0
2017-Oct-10 00:30N 64°52' E 011°14'2 4.2
2017-Oct-10 00:01N 64°50' E 011°11'815.3
2017-Oct-09 23:30N 64°44' E 010°58'815.1
2017-Oct-09 23:00N 64°39' E 010°46'715.0
2017-Oct-09 22:30N 64°34' E 010°34'714.6
2017-Oct-09 22:00N 64°28' E 010°22'714.7
2017-Oct-09 21:30N 64°23' E 010°10'815.4
2017-Oct-09 21:00N 64°18' E 009°58'815.3
2017-Oct-09 20:30N 64°12' E 009°46'815.5
2017-Oct-09 20:00N 64°05' E 009°38'715.0
2017-Oct-09 19:30N 63°58' E 009°30'815.2
2017-Oct-09 19:00N 63°51' E 009°23'815.1
2017-Oct-09 18:30N 63°44' E 009°18'715.0
2017-Oct-09 18:00N 63°37' E 009°16'713.0
2017-Oct-09 17:30N 63°31' E 009°09'714.4
2017-Oct-09 17:00N 63°28' E 008°54'714.4
2017-Oct-09 16:30N 63°25' E 008°39'714.5
2017-Oct-09 16:00N 63°22' E 008°25'714.7
2017-Oct-09 15:30N 63°17' E 008°12'714.9
2017-Oct-09 15:00N 63°14' E 007°58'714.9
2017-Oct-09 14:30N 63°10' E 007°44'714.8
2017-Oct-09 14:00N 63°06' E 007°30'714.3
2017-Oct-09 13:30N 63°03' E 007°16'714.2
2017-Oct-09 13:00N 63°00' E 007°01'714.1
2017-Oct-09 12:30N 62°56' E 006°49'714.8
2017-Oct-09 12:00N 62°50' E 006°40'714.9
2017-Oct-09 11:30N 62°44' E 006°31'714.7
2017-Oct-09 11:00N 62°38' E 006°21'714.6
2017-Oct-09 10:30N 62°33' E 006°10'4 7.8
2017-Oct-09 09:59N 62°29' E 006°12'0 0.0
2017-Oct-09 09:29N 62°29' E 006°12'0 0.0
2017-Oct-09 08:59N 62°29' E 006°12'0 0.0
2017-Oct-09 08:29N 62°29' E 006°12'0 0.0
2017-Oct-09 07:59N 62°29' E 006°12'0 0.0
2017-Oct-09 07:29N 62°29' E 006°12'0 0.0
2017-Oct-09 06:59N 62°29' E 006°12'0 0.1
2017-Oct-09 06:29N 62°29' E 006°12'0 0.0
2017-Oct-09 05:59N 62°29' E 006°12'0 0.0
2017-Oct-09 05:29N 62°29' E 006°12'0 0.0
2017-Oct-09 05:00N 62°29' E 006°12'0 0.0
2017-Oct-09 04:30N 62°29' E 006°12'0 0.0
2017-Oct-09 04:00N 62°29' E 006°12'0 0.0
2017-Oct-09 03:30N 62°29' E 006°12'3 5.9
2017-Oct-09 03:00N 62°28' E 006°05'713.9
2017-Oct-09 02:30N 62°25' E 005°52'713.0
2017-Oct-09 02:00N 62°19' E 005°45'713.7
2017-Oct-09 01:30N 62°18' E 005°31'713.6
2017-Oct-09 01:00N 62°15' E 005°17'714.0
2017-Oct-09 00:30N 62°11' E 005°05'713.6
2017-Oct-09 00:00N 62°05' E 005°07'714.0
2017-Oct-08 23:30N 61°58' E 005°09'511.0
2017-Oct-08 23:00N 61°53' E 005°12'4 8.2
2017-Oct-08 22:30N 61°49' E 005°09'713.9
2017-Oct-08 22:00N 61°44' E 004°58'714.1
2017-Oct-08 21:30N 61°37' E 004°59'1 2.7
2017-Oct-08 20:59N 61°36' E 005°02'0 0.0
2017-Oct-08 20:29N 61°36' E 005°02'3 5.7
2017-Oct-08 20:00N 61°33' E 004°60'713.7
2017-Oct-08 19:30N 61°27' E 004°55'714.3
2017-Oct-08 19:00N 61°21' E 004°48'714.1
2017-Oct-08 18:30N 61°14' E 004°43'713.9
2017-Oct-08 18:00N 61°07' E 004°45'714.0
2017-Oct-08 17:29N 61°00' E 004°45'714.1
2017-Oct-08 17:00N 60°53' E 004°46'713.2
2017-Oct-08 16:30N 60°46' E 004°46'714.4
2017-Oct-08 16:00N 60°40' E 004°51'714.4
2017-Oct-08 15:30N 60°33' E 004°56'714.5
2017-Oct-08 15:00N 60°26' E 005°02'712.7
2017-Oct-08 14:29N 60°24' E 005°15'2 4.8
2017-Oct-08 14:00N 60°23' E 005°19'0 0.0
2017-Oct-08 13:30N 60°23' E 005°19'0 0.0
2017-Oct-08 13:00N 60°23' E 005°19'0 0.0
2017-Oct-08 12:30N 60°23' E 005°19'0 0.0
2017-Oct-08 12:00N 60°23' E 005°19'0 0.0
2017-Oct-08 11:30N 60°23' E 005°19'0 0.0
2017-Oct-08 10:57N 60°23' E 005°19'2 4.4
2017-Oct-08 10:30N 60°24' E 005°15'510.6
2017-Oct-08 10:00N 60°19' E 005°12'713.1
2017-Oct-08 09:30N 60°12' E 005°12'714.3
2017-Oct-08 09:00N 60°06' E 005°19'714.4
2017-Oct-08 08:30N 59°59' E 005°22'815.3
2017-Oct-08 08:00N 59°53' E 005°32'713.8
2017-Oct-08 07:30N 59°47' E 005°33'612.0
2017-Oct-08 07:00N 59°42' E 005°26'611.9
2017-Oct-08 06:30N 59°37' E 005°18'511.1
2017-Oct-08 06:00N 59°32' E 005°14'713.3
2017-Oct-08 05:30N 59°26' E 005°14'613.0
2017-Oct-08 05:00N 59°20' E 005°19'0 0.9
2017-Oct-08 04:30N 59°20' E 005°18'0 0.0
2017-Oct-08 04:00N 59°20' E 005°18'0 0.0
2017-Oct-08 03:31N 59°20' E 005°18'  

Dump ship's entire track history